Time;durP1;ratioP1;P1;durP2;ratioP2;P2;SDS_P1;SDS_P2;PMS_P1;PMS_P2;Temp;Humidity;BMP_temperature;BMP_pressure;BME280_temperature;BME280_humidity;BME280_pressure;Samples;Min_cycle;Max_cycle;Signal;HPM_P1;HPM_P2
2022/03/11 00:00:36;;;;;;;31.45;17.63;;;4.90;99.90;;;;;;4694492;28;10000512;-68
2022/03/11 00:03:02;;;;;;;29.33;17.05;;;4.80;99.90;;;;;;5042023;28;20071;-68
2022/03/11 00:05:28;;;;;;;35.17;18.35;;;4.80;99.90;;;;;;5042259;28;20016;-68
2022/03/11 00:07:55;;;;;;;32.80;17.92;;;4.80;99.90;;;;;;5031062;28;20025;-68
2022/03/11 00:10:20;;;;;;;32.03;18.33;;;4.70;99.90;;;;;;5034435;28;20431;-68
2022/03/11 00:12:46;;;;;;;32.63;18.85;;;4.70;99.90;;;;;;5044896;28;20400;-68
2022/03/11 00:15:12;;;;;;;32.75;18.23;;;4.70;99.90;;;;;;5030016;28;20366;-68
2022/03/11 00:17:37;;;;;;;29.27;17.73;;;4.70;99.90;;;;;;5044015;28;20103;-68
2022/03/11 00:20:05;;;;;;;29.50;17.30;;;4.60;99.90;;;;;;5042630;28;20384;-68
2022/03/11 00:22:31;;;;;;;34.38;17.42;;;4.50;99.90;;;;;;5046525;28;20550;-68
2022/03/11 00:24:57;;;;;;;32.15;18.73;;;4.50;99.90;;;;;;5033813;28;20117;-68
2022/03/11 00:27:22;;;;;;;33.10;17.85;;;4.40;99.90;;;;;;5035314;28;20034;-68
2022/03/11 00:29:48;;;;;;;30.60;18.15;;;4.40;99.90;;;;;;5041167;28;20025;-68
2022/03/11 00:32:14;;;;;;;32.55;17.63;;;4.40;99.90;;;;;;5027686;28;20049;-68
2022/03/11 00:34:40;;;;;;;32.22;17.65;;;4.30;99.90;;;;;;5036735;28;20573;-68
2022/03/11 00:37:05;;;;;;;32.28;18.83;;;4.30;99.90;;;;;;5051939;28;20533;-68
2022/03/11 00:39:31;;;;;;;36.05;18.85;;;4.30;99.90;;;;;;5040325;28;20207;-69
2022/03/11 00:41:57;;;;;;;31.80;19.13;;;4.30;99.90;;;;;;5031985;28;20152;-68
2022/03/11 00:44:22;;;;;;;30.63;18.20;;;4.30;99.90;;;;;;5040931;28;20388;-68
2022/03/11 00:46:48;;;;;;;33.17;18.55;;;4.20;99.90;;;;;;5033879;28;20166;-68
2022/03/11 00:49:14;;;;;;;32.00;17.77;;;4.20;99.90;;;;;;5037010;28;20464;-68
2022/03/11 00:51:39;;;;;;;34.33;18.10;;;4.10;99.90;;;;;;5050880;28;20029;-69
2022/03/11 00:54:05;;;;;;;35.75;18.10;;;4.20;99.90;;;;;;5045465;28;20029;-68
2022/03/11 00:56:31;;;;;;;32.70;18.00;;;4.20;99.90;;;;;;5031125;28;20325;-68
2022/03/11 00:58:57;;;;;;;34.50;18.42;;;4.10;99.90;;;;;;5036183;28;20021;-68
2022/03/11 01:01:23;;;;;;;32.72;18.80;;;4.10;99.90;;;;;;5032634;28;20484;-68
2022/03/11 01:03:49;;;;;;;32.75;18.30;;;4.10;99.90;;;;;;5032214;28;20037;-68
2022/03/11 01:06:15;;;;;;;34.33;17.98;;;4.00;99.90;;;;;;5030971;28;20041;-68
2022/03/11 01:08:40;;;;;;;33.25;18.17;;;4.00;99.90;;;;;;5036067;28;20037;-68
2022/03/11 01:11:08;;;;;;;35.13;18.08;;;4.00;99.90;;;;;;5031538;28;20061;-68
2022/03/11 01:13:35;;;;;;;34.70;19.00;;;4.00;99.90;;;;;;5033719;28;20456;-68
2022/03/11 01:16:01;;;;;;;33.38;18.30;;;4.00;99.90;;;;;;5028950;28;20393;-68
2022/03/11 01:18:28;;;;;;;35.58;19.00;;;4.00;99.90;;;;;;5034817;28;20033;-68
2022/03/11 01:20:55;;;;;;;33.22;19.10;;;4.00;99.90;;;;;;5031715;28;20033;-68
2022/03/11 01:23:21;;;;;;;33.13;18.55;;;4.00;99.90;;;;;;5035104;28;20112;-68
2022/03/11 01:25:47;;;;;;;34.28;19.60;;;4.00;99.90;;;;;;5032079;28;20838;-68
2022/03/11 01:28:13;;;;;;;36.17;19.73;;;3.90;99.90;;;;;;5033324;28;20056;-68
2022/03/11 01:30:41;;;;;;;31.67;18.67;;;3.90;99.90;;;;;;5036345;28;20041;-68
2022/03/11 01:33:07;;;;;;;40.08;19.05;;;3.90;99.90;;;;;;5034855;28;20040;-68
2022/03/11 01:35:33;;;;;;;31.35;18.45;;;3.90;99.90;;;;;;5026829;28;20045;-68
2022/03/11 01:37:59;;;;;;;33.92;18.17;;;3.90;99.90;;;;;;5031012;28;20390;-68
2022/03/11 01:40:25;;;;;;;30.42;17.23;;;3.90;99.90;;;;;;5030513;28;20021;-68
2022/03/11 01:42:51;;;;;;;29.83;17.52;;;3.80;99.90;;;;;;5035201;28;20521;-68
2022/03/11 01:45:17;;;;;;;28.38;17.13;;;3.70;99.90;;;;;;5029047;28;20025;-68
2022/03/11 01:47:43;;;;;;;28.77;17.50;;;3.50;99.90;;;;;;5030862;28;20059;-68
2022/03/11 01:50:09;;;;;;;34.65;18.35;;;3.50;99.90;;;;;;5038090;28;20060;-68
2022/03/11 01:52:37;;;;;;;33.58;18.25;;;3.30;99.90;;;;;;5030325;28;20183;-68
2022/03/11 01:55:04;;;;;;;32.38;18.23;;;3.20;99.90;;;;;;5030853;28;22810;-68
2022/03/11 01:57:35;;;;;;;34.42;18.50;;;3.20;99.90;;;;;;5033153;28;20083;-68
2022/03/11 02:00:03;;;;;;;31.08;18.33;;;3.20;99.90;;;;;;5032177;28;20504;-68
2022/03/11 02:02:29;;;;;;;34.25;19.67;;;3.20;99.90;;;;;;5042856;28;20040;-68
2022/03/11 02:04:54;;;;;;;32.25;18.38;;;3.20;99.90;;;;;;5044821;28;20029;-68
2022/03/11 02:07:21;;;;;;;29.20;17.90;;;3.20;99.90;;;;;;5030997;28;20030;-68
2022/03/11 02:09:46;;;;;;;31.48;18.83;;;3.20;99.90;;;;;;5036318;28;20195;-68
2022/03/11 02:12:28;;;;;;;35.42;19.17;;;3.30;99.90;;;;;;5043308;28;20732;-68
2022/03/11 02:14:55;;;;;;;31.50;17.77;;;3.20;99.90;;;;;;5033414;28;20496;-68
2022/03/11 02:17:20;;;;;;;31.30;18.02;;;3.20;99.90;;;;;;5047611;28;20036;-68
2022/03/11 02:19:46;;;;;;;35.25;19.70;;;3.20;99.90;;;;;;5046913;28;20396;-68
2022/03/11 02:22:15;;;;;;;36.13;18.98;;;3.20;99.90;;;;;;5046159;28;20032;-68
2022/03/11 02:24:40;;;;;;;30.95;18.15;;;3.30;99.90;;;;;;5035724;28;20048;-68
2022/03/11 02:27:06;;;;;;;32.47;18.83;;;3.30;99.90;;;;;;5040632;28;20033;-68
2022/03/11 02:29:32;;;;;;;32.15;19.15;;;3.40;99.90;;;;;;5041831;28;20029;-68
2022/03/11 02:31:57;;;;;;;34.42;19.33;;;3.50;99.90;;;;;;5034831;28;20067;-68
2022/03/11 02:34:23;;;;;;;37.60;20.30;;;3.50;99.90;;;;;;5044314;28;20025;-68
2022/03/11 02:36:48;;;;;;;34.60;18.90;;;3.50;99.90;;;;;;5036714;28;20029;-68
2022/03/11 02:39:14;;;;;;;34.35;19.05;;;3.50;99.90;;;;;;5041262;28;20381;-68
2022/03/11 02:41:42;;;;;;;37.80;20.40;;;3.50;99.90;;;;;;5037547;28;20029;-68
2022/03/11 02:44:08;;;;;;;33.92;19.77;;;3.50;99.90;;;;;;5044470;28;20052;-68
2022/03/11 02:46:34;;;;;;;33.28;19.15;;;3.50;99.90;;;;;;5038571;28;20028;-68
2022/03/11 02:49:00;;;;;;;34.45;18.70;;;3.40;99.90;;;;;;5039549;28;20122;-68
2022/03/11 02:51:25;;;;;;;34.95;19.42;;;3.40;99.90;;;;;;5046891;28;20060;-68
2022/03/11 02:53:51;;;;;;;33.28;18.88;;;3.40;99.90;;;;;;5055358;28;21012;-68
2022/03/11 02:56:18;;;;;;;33.13;19.65;;;3.30;99.90;;;;;;5045473;28;20033;-68
2022/03/11 02:58:43;;;;;;;37.67;19.98;;;3.30;99.90;;;;;;5031712;28;20116;-68
2022/03/11 03:01:10;;;;;;;36.15;19.50;;;3.20;99.90;;;;;;5036865;28;20142;-68
2022/03/11 03:03:36;;;;;;;36.55;20.40;;;3.20;99.90;;;;;;5035720;28;20036;-67
2022/03/11 03:06:02;;;;;;;35.42;20.80;;;3.10;99.90;;;;;;5039185;28;20179;-68
2022/03/11 03:08:28;;;;;;;40.40;20.92;;;3.10;99.90;;;;;;5053142;28;20245;-67
2022/03/11 03:10:53;;;;;;;37.38;20.33;;;3.10;99.90;;;;;;5058729;28;20025;-68
2022/03/11 03:13:19;;;;;;;35.38;20.38;;;3.10;99.90;;;;;;5059434;28;20127;-68
2022/03/11 03:15:45;;;;;;;40.25;20.98;;;3.10;99.90;;;;;;5030265;28;20033;-68
2022/03/11 03:18:10;;;;;;;39.55;20.77;;;3.10;99.90;;;;;;5062878;28;20465;-68
2022/03/11 03:20:36;;;;;;;37.40;20.35;;;3.10;99.90;;;;;;5043335;28;20057;-68
2022/03/11 03:23:02;;;;;;;34.60;20.00;;;3.00;99.90;;;;;;5057131;28;20047;-68
2022/03/11 03:25:27;;;;;;;38.60;21.90;;;3.00;99.90;;;;;;5054303;28;20515;-68
2022/03/11 03:27:53;;;;;;;36.47;21.20;;;3.00;99.90;;;;;;5044751;28;20551;-68
2022/03/11 03:30:19;;;;;;;36.80;21.23;;;3.00;99.90;;;;;;5044088;28;20047;-68
2022/03/11 03:32:44;;;;;;;37.40;20.45;;;3.00;99.90;;;;;;5039983;28;20416;-68
2022/03/11 03:35:11;;;;;;;37.05;22.52;;;3.00;99.90;;;;;;5045294;28;20037;-68
2022/03/11 03:37:37;;;;;;;35.50;19.92;;;3.00;99.90;;;;;;5044818;28;20056;-68
2022/03/11 03:40:04;;;;;;;36.17;20.38;;;3.00;99.90;;;;;;5042253;28;20567;-68
2022/03/11 03:42:30;;;;;;;38.33;20.17;;;3.00;99.90;;;;;;5043104;28;20037;-67
2022/03/11 03:44:56;;;;;;;36.53;20.48;;;3.00;99.90;;;;;;5040658;28;20461;-67
2022/03/11 03:47:21;;;;;;;36.72;20.13;;;2.90;99.90;;;;;;5044905;28;20049;-67
2022/03/11 03:49:47;;;;;;;34.17;20.40;;;2.90;99.90;;;;;;5037299;28;20466;-67
2022/03/11 03:52:12;;;;;;;37.83;21.25;;;2.90;99.90;;;;;;5053975;28;20081;-68
2022/03/11 03:54:42;;;;;;;40.97;21.55;;;2.90;99.90;;;;;;5052562;28;20063;-67
2022/03/11 03:57:08;;;;;;;38.15;20.55;;;2.80;99.90;;;;;;5044757;28;20291;-67
2022/03/11 03:59:33;;;;;;;35.53;21.40;;;2.80;99.90;;;;;;5036894;28;20729;-68
2022/03/11 04:01:59;;;;;;;35.67;20.38;;;2.90;99.90;;;;;;5042520;28;20407;-68
2022/03/11 04:04:25;;;;;;;34.42;20.02;;;2.90;99.90;;;;;;5039116;28;20033;-67
2022/03/11 04:06:51;;;;;;;33.65;19.63;;;2.90;99.90;;;;;;5031966;28;20036;-68
2022/03/11 04:09:16;;;;;;;37.13;20.85;;;2.80;99.90;;;;;;5036074;28;20446;-68
2022/03/11 04:11:42;;;;;;;37.03;20.48;;;2.80;99.90;;;;;;5035406;28;20049;-68
2022/03/11 04:14:08;;;;;;;34.90;19.90;;;2.80;99.90;;;;;;5038222;28;20370;-67
2022/03/11 04:16:34;;;;;;;36.83;19.85;;;2.80;99.90;;;;;;5045649;28;20032;-68
2022/03/11 04:18:59;;;;;;;33.58;19.05;;;2.70;99.90;;;;;;5046548;28;20037;-67
2022/03/11 04:21:25;;;;;;;33.78;19.85;;;2.70;99.90;;;;;;5052737;28;20302;-68
2022/03/11 04:23:51;;;;;;;35.13;20.17;;;2.60;99.90;;;;;;5034581;28;20503;-68
2022/03/11 04:26:17;;;;;;;42.97;20.40;;;2.60;99.90;;;;;;5055570;28;20323;-68
2022/03/11 04:28:44;;;;;;;39.25;20.83;;;2.50;99.90;;;;;;5045324;28;20059;-67
2022/03/11 04:31:11;;;;;;;34.38;19.42;;;2.50;99.90;;;;;;5050689;28;20127;-67
2022/03/11 04:33:39;;;;;;;35.83;20.08;;;2.50;99.90;;;;;;5043098;28;20088;-68
2022/03/11 04:36:06;;;;;;;36.08;19.98;;;2.50;99.90;;;;;;5049065;28;20415;-68
2022/03/11 04:38:32;;;;;;;35.55;20.85;;;2.50;99.90;;;;;;5041586;28;20295;-68
2022/03/11 04:40:58;;;;;;;36.42;20.35;;;2.50;99.90;;;;;;5040202;28;20582;-67
2022/03/11 04:43:24;;;;;;;34.58;19.15;;;2.50;99.90;;;;;;5045039;28;20032;-68
2022/03/11 04:45:49;;;;;;;34.03;19.50;;;2.30;99.90;;;;;;5044725;28;20131;-67
2022/03/11 04:48:15;;;;;;;33.50;19.23;;;2.20;99.90;;;;;;5047176;28;20348;-68
2022/03/11 04:50:41;;;;;;;34.80;19.83;;;2.10;99.90;;;;;;5068710;28;20111;-67
2022/03/11 04:53:07;;;;;;;36.95;20.73;;;1.90;99.90;;;;;;5041529;28;20113;-67
2022/03/11 04:55:33;;;;;;;39.88;20.65;;;2.00;99.90;;;;;;5045621;28;20025;-67
2022/03/11 04:57:59;;;;;;;35.13;19.98;;;2.00;99.90;;;;;;5042932;28;20029;-67
2022/03/11 05:00:25;;;;;;;36.22;21.13;;;2.00;99.90;;;;;;5061969;28;20040;-67
2022/03/11 05:02:51;;;;;;;38.30;19.63;;;2.10;99.90;;;;;;5045361;28;20369;-67
2022/03/11 05:05:17;;;;;;;38.38;20.23;;;2.10;99.90;;;;;;5048524;28;20039;-67
2022/03/11 05:07:43;;;;;;;36.35;21.00;;;2.20;99.90;;;;;;5045106;28;20037;-67
2022/03/11 05:10:11;;;;;;;35.33;20.23;;;2.20;99.90;;;;;;5047233;28;20047;-67
2022/03/11 05:12:37;;;;;;;36.58;20.65;;;2.20;99.90;;;;;;5043406;28;20093;-67
2022/03/11 05:15:04;;;;;;;37.50;20.25;;;2.30;99.90;;;;;;5038056;28;20037;-67
2022/03/11 05:17:30;;;;;;;33.85;19.70;;;2.20;99.90;;;;;;5047602;28;20100;-67
2022/03/11 05:19:56;;;;;;;33.03;19.08;;;2.20;99.90;;;;;;5040116;28;20116;-67
2022/03/11 05:22:22;;;;;;;35.67;19.42;;;2.30;99.90;;;;;;5031883;28;20064;-67
2022/03/11 05:24:48;;;;;;;35.60;19.83;;;2.30;99.90;;;;;;5043471;28;20496;-67
2022/03/11 05:27:14;;;;;;;32.47;18.27;;;2.20;99.90;;;;;;5048284;28;20099;-67
2022/03/11 05:29:40;;;;;;;37.17;20.33;;;2.10;99.90;;;;;;5055638;28;20024;-67
2022/03/11 05:32:07;;;;;;;35.05;19.10;;;2.00;99.90;;;;;;5047708;28;20492;-67
2022/03/11 05:34:34;;;;;;;35.08;18.58;;;1.90;99.90;;;;;;5044258;28;20131;-67
2022/03/11 05:37:00;;;;;;;37.08;19.85;;;1.70;99.90;;;;;;5034253;28;20036;-67
2022/03/11 05:39:26;;;;;;;33.92;18.48;;;1.60;99.90;;;;;;5058655;28;20025;-67
2022/03/11 05:41:52;;;;;;;35.85;20.60;;;1.60;99.90;;;;;;5037150;28;20025;-67
2022/03/11 05:44:18;;;;;;;35.78;19.50;;;1.50;99.90;;;;;;5040682;28;20535;-67
2022/03/11 05:46:45;;;;;;;34.28;19.30;;;1.30;99.90;;;;;;5045531;28;20028;-67
2022/03/11 05:49:11;;;;;;;32.78;18.02;;;1.30;99.90;;;;;;5039073;28;20059;-67
2022/03/11 05:51:37;;;;;;;33.80;19.08;;;1.20;99.90;;;;;;5058907;28;20025;-67
2022/03/11 05:54:05;;;;;;;32.10;18.73;;;1.10;99.90;;;;;;5035192;28;20078;-67
2022/03/11 05:56:31;;;;;;;32.08;18.02;;;1.10;99.90;;;;;;5048750;28;20047;-67
2022/03/11 05:58:56;;;;;;;30.60;18.70;;;1.00;99.90;;;;;;5062520;28;20034;-67
2022/03/11 06:01:22;;;;;;;31.77;18.40;;;1.00;99.90;;;;;;5039537;28;20412;-67
2022/03/11 06:03:48;;;;;;;34.80;19.92;;;0.90;99.90;;;;;;5042867;28;20018;-67
2022/03/11 06:06:14;;;;;;;34.72;18.85;;;1.00;99.90;;;;;;5041040;28;20570;-67
2022/03/11 06:08:41;;;;;;;31.40;17.25;;;0.90;99.90;;;;;;5033128;28;20053;-67
2022/03/11 06:11:07;;;;;;;33.53;18.83;;;1.00;99.90;;;;;;5046405;28;20144;-67
2022/03/11 06:13:32;;;;;;;33.80;18.40;;;1.10;99.90;;;;;;5041355;28;20115;-67
2022/03/11 06:15:58;;;;;;;32.92;17.83;;;1.20;99.90;;;;;;5039153;28;20385;-67
2022/03/11 06:18:23;;;;;;;31.05;17.48;;;1.30;99.90;;;;;;5030584;28;20021;-67
2022/03/11 06:20:49;;;;;;;28.88;16.83;;;1.50;99.90;;;;;;5037820;28;20037;-67
2022/03/11 06:23:15;;;;;;;30.15;17.25;;;1.50;99.90;;;;;;5035313;28;20029;-67
2022/03/11 06:25:42;;;;;;;30.58;16.80;;;1.50;99.90;;;;;;5037898;28;20059;-67
2022/03/11 06:28:08;;;;;;;32.45;16.92;;;1.60;99.90;;;;;;5038531;28;20052;-67
2022/03/11 06:30:34;;;;;;;29.85;16.83;;;1.60;99.90;;;;;;5039175;28;20082;-67
2022/03/11 06:32:59;;;;;;;32.17;17.67;;;1.60;99.90;;;;;;5040523;28;20039;-67
2022/03/11 06:35:25;;;;;;;30.92;17.40;;;1.70;99.90;;;;;;5034412;28;20025;-67
2022/03/11 06:37:51;;;;;;;31.83;17.98;;;1.80;99.90;;;;;;5033876;28;20053;-67
2022/03/11 06:40:17;;;;;;;30.35;17.73;;;1.80;99.90;;;;;;5029680;28;20121;-67
2022/03/11 06:42:45;;;;;;;28.77;16.90;;;1.80;99.90;;;;;;5034254;28;20052;-67
2022/03/11 06:45:12;;;;;;;29.52;16.70;;;1.80;99.90;;;;;;5030211;28;20114;-67
2022/03/11 06:47:39;;;;;;;30.40;17.42;;;1.90;99.90;;;;;;5033772;28;20026;-67
2022/03/11 06:50:06;;;;;;;31.40;17.02;;;1.90;99.90;;;;;;5039358;28;20021;-67
2022/03/11 06:52:32;;;;;;;29.45;16.88;;;2.00;99.90;;;;;;5033898;28;20190;-67
2022/03/11 06:54:58;;;;;;;31.00;16.92;;;2.00;99.90;;;;;;5034756;28;20394;-67
2022/03/11 06:57:23;;;;;;;30.13;15.65;;;2.00;99.90;;;;;;5037334;28;20037;-67
2022/03/11 06:59:50;;;;;;;30.38;16.55;;;2.00;99.90;;;;;;5038014;28;20028;-67
2022/03/11 07:02:16;;;;;;;28.50;16.27;;;2.00;99.90;;;;;;5038944;28;20281;-67
2022/03/11 07:04:42;;;;;;;28.98;16.30;;;2.00;99.90;;;;;;5035206;28;20025;-67
2022/03/11 07:07:08;;;;;;;27.48;16.48;;;2.00;99.90;;;;;;5040167;28;20515;-67
2022/03/11 07:09:35;;;;;;;27.55;15.23;;;2.10;99.90;;;;;;5029952;28;20350;-67
2022/03/11 07:12:02;;;;;;;28.58;16.27;;;2.00;99.90;;;;;;5033502;28;20061;-67
2022/03/11 07:14:30;;;;;;;28.27;15.80;;;2.00;99.90;;;;;;5028471;28;20480;-68
2022/03/11 07:16:57;;;;;;;26.88;15.43;;;2.00;99.90;;;;;;5037472;28;20071;-67
2022/03/11 07:19:27;;;;;;;28.10;15.80;;;1.80;99.90;;;;;;5027231;28;20029;-67
2022/03/11 07:21:57;;;;;;;26.55;15.15;;;1.80;99.90;;;;;;5033172;28;20047;-67
2022/03/11 07:24:23;;;;;;;26.70;15.20;;;1.80;99.90;;;;;;5037308;28;20432;-67
2022/03/11 07:26:48;;;;;;;25.25;14.02;;;1.80;99.90;;;;;;5034174;28;20033;-67
2022/03/11 07:29:14;;;;;;;27.42;15.75;;;1.70;99.90;;;;;;5038458;28;20365;-67
2022/03/11 07:31:40;;;;;;;26.35;15.57;;;1.60;99.90;;;;;;5040046;28;20037;-68
2022/03/11 07:34:06;;;;;;;30.85;15.43;;;1.60;99.90;;;;;;5037305;28;20493;-67
2022/03/11 07:36:34;;;;;;;26.70;13.98;;;1.60;99.90;;;;;;5033959;28;20036;-67
2022/03/11 07:39:03;;;;;;;26.23;15.07;;;1.60;99.90;;;;;;5031360;28;20036;-67
2022/03/11 07:41:29;;;;;;;26.73;15.15;;;1.60;99.90;;;;;;5026214;28;20597;-67
2022/03/11 07:43:55;;;;;;;26.67;14.02;;;1.60;99.90;;;;;;5034822;28;20025;-67
2022/03/11 07:46:23;;;;;;;25.92;13.55;;;1.60;99.90;;;;;;5036111;28;20077;-67
2022/03/11 07:48:50;;;;;;;27.00;14.27;;;1.60;99.90;;;;;;5034702;28;20033;-67
2022/03/11 07:51:16;;;;;;;25.50;13.93;;;1.70;99.90;;;;;;5039065;28;20071;-67
2022/03/11 07:53:42;;;;;;;24.15;13.18;;;1.80;99.90;;;;;;5032768;28;20088;-67
2022/03/11 07:56:10;;;;;;;22.42;13.05;;;1.80;99.90;;;;;;5036709;28;20477;-67
2022/03/11 07:58:36;;;;;;;23.55;13.27;;;1.90;99.30;;;;;;5039661;28;20037;-67
2022/03/11 08:01:04;;;;;;;22.63;12.45;;;2.00;99.30;;;;;;5036745;28;20029;-68
2022/03/11 08:03:30;;;;;;;23.05;12.57;;;2.10;99.50;;;;;;5039240;28;20037;-69
2022/03/11 08:05:55;;;;;;;22.00;12.82;;;2.30;97.60;;;;;;5024410;28;20504;-68
2022/03/11 08:08:21;;;;;;;22.88;12.15;;;2.40;97.40;;;;;;5045256;28;20040;-69
2022/03/11 08:10:47;;;;;;;22.17;12.30;;;2.60;96.00;;;;;;5032593;28;20044;-69
2022/03/11 08:13:12;;;;;;;19.63;10.90;;;2.70;96.20;;;;;;5033515;28;20036;-69
2022/03/11 08:15:38;;;;;;;21.25;12.20;;;2.90;94.30;;;;;;5031557;28;20287;-69
2022/03/11 08:18:04;;;;;;;20.23;11.27;;;3.10;93.20;;;;;;5043121;28;20083;-69
2022/03/11 08:20:30;;;;;;;18.67;10.93;;;3.30;93.30;;;;;;5034814;28;20037;-69
2022/03/11 08:22:56;;;;;;;19.23;10.60;;;3.50;91.60;;;;;;5042544;28;20037;-69
2022/03/11 08:25:26;;;;;;;20.23;11.20;;;3.70;91.00;;;;;;5029810;28;20445;-69
2022/03/11 08:27:53;;;;;;;21.95;11.63;;;3.90;90.80;;;;;;5036336;28;20053;-69
2022/03/11 08:30:20;;;;;;;19.52;11.65;;;4.00;87.80;;;;;;5018063;28;20036;-68
2022/03/11 08:32:46;;;;;;;18.13;11.00;;;4.20;85.30;;;;;;5010165;28;20076;-69
2022/03/11 08:35:12;;;;;;;20.05;11.73;;;4.30;84.30;;;;;;5018392;28;20040;-69
2022/03/11 08:37:39;;;;;;;17.98;10.93;;;4.40;82.70;;;;;;5026859;28;20043;-69
2022/03/11 08:40:07;;;;;;;17.65;10.13;;;4.60;83.10;;;;;;5021741;28;20040;-69
2022/03/11 08:42:33;;;;;;;20.13;10.63;;;4.70;81.80;;;;;;5019315;28;20322;-69
2022/03/11 08:45:00;;;;;;;19.77;11.15;;;4.90;80.60;;;;;;5010517;28;20409;-69
2022/03/11 08:47:26;;;;;;;15.45;9.98;;;5.00;80.30;;;;;;5017866;28;20042;-68
2022/03/11 08:49:52;;;;;;;18.88;10.35;;;5.20;89.30;;;;;;5021592;28;20036;-68
2022/03/11 08:52:19;;;;;;;16.38;9.48;;;5.30;88.20;;;;;;5017115;28;20067;-69
2022/03/11 08:54:45;;;;;;;17.77;10.55;;;5.30;71.80;;;;;;5025987;28;20029;-69
2022/03/11 08:57:11;;;;;;;17.13;9.27;;;5.40;73.20;;;;;;5022979;28;20092;-69
2022/03/11 08:59:36;;;;;;;16.73;9.30;;;5.60;71.50;;;;;;5026038;28;20029;-69
2022/03/11 09:02:03;;;;;;;16.52;9.77;;;5.70;71.00;;;;;;5020285;28;20349;-70
2022/03/11 09:04:28;;;;;;;15.52;9.10;;;5.70;68.00;;;;;;5026022;28;20107;-70
2022/03/11 09:06:54;;;;;;;17.30;9.10;;;5.70;66.30;;;;;;5030318;28;20512;-69
2022/03/11 09:09:19;;;;;;;19.70;8.93;;;5.80;66.00;;;;;;5027269;28;20370;-69
2022/03/11 09:11:45;;;;;;;13.80;8.65;;;5.90;65.40;;;;;;5026868;28;20030;-70
2022/03/11 09:14:11;;;;;;;17.55;9.25;;;6.00;64.70;;;;;;5021760;28;20481;-69
2022/03/11 09:16:37;;;;;;;16.52;8.57;;;6.20;66.70;;;;;;5029168;28;20031;-70
2022/03/11 09:19:03;;;;;;;17.35;8.98;;;6.30;67.40;;;;;;5019984;28;20053;-69
2022/03/11 09:21:29;;;;;;;16.75;8.50;;;6.50;66.00;;;;;;5017505;28;20076;-70
2022/03/11 09:23:55;;;;;;;16.42;9.05;;;6.50;62.70;;;;;;5021922;28;20037;-69
2022/03/11 09:26:21;;;;;;;15.20;8.00;;;6.60;63.10;;;;;;5029940;28;20096;-69
2022/03/11 09:28:46;;;;;;;14.15;8.55;;;6.60;63.50;;;;;;5035373;28;20036;-70
2022/03/11 09:31:13;;;;;;;13.32;8.20;;;6.70;65.60;;;;;;5045677;28;20043;-70
2022/03/11 09:33:40;;;;;;;13.90;8.10;;;6.80;62.90;;;;;;5046842;28;20040;-70
2022/03/11 09:36:07;;;;;;;14.63;8.30;;;7.00;62.50;;;;;;5044735;28;20025;-70
2022/03/11 09:38:33;;;;;;;13.60;7.95;;;7.10;59.80;;;;;;5041726;28;20763;-70
2022/03/11 09:41:01;;;;;;;15.68;8.10;;;7.20;57.30;;;;;;5067909;28;20028;-71
2022/03/11 09:43:27;;;;;;;13.57;7.85;;;7.30;57.40;;;;;;5068617;28;20040;-70
2022/03/11 09:45:53;;;;;;;12.07;7.57;;;7.40;55.80;;;;;;5038655;28;20025;-70
2022/03/11 09:48:20;;;;;;;14.35;8.32;;;7.50;56.10;;;;;;5053548;28;20032;-70
2022/03/11 09:50:46;;;;;;;13.32;7.88;;;7.60;56.60;;;;;;5045133;28;20443;-71
2022/03/11 09:53:12;;;;;;;14.48;7.38;;;7.60;53.40;;;;;;5045655;28;20029;-71
2022/03/11 09:55:40;;;;;;;13.65;7.55;;;7.60;54.40;;;;;;5032341;28;20025;-70
2022/03/11 09:58:06;;;;;;;12.35;7.18;;;7.80;53.70;;;;;;5033283;28;20021;-69
2022/03/11 10:00:32;;;;;;;15.10;7.72;;;7.90;52.90;;;;;;5029031;28;20025;-71
2022/03/11 10:02:57;;;;;;;12.90;7.60;;;7.90;52.30;;;;;;5033867;28;20040;-70
2022/03/11 10:05:23;;;;;;;15.18;6.80;;;7.90;52.90;;;;;;5056666;28;20041;-71
2022/03/11 10:08:08;;;;;;;13.15;7.40;;;8.00;52.20;;;;;;5053874;28;20606;-71
2022/03/11 10:10:33;;;;;;;12.18;7.38;;;8.10;51.70;;;;;;5053501;28;20520;-70
2022/03/11 10:12:59;;;;;;;10.82;6.75;;;8.10;50.50;;;;;;5044287;28;20037;-70
2022/03/11 10:15:29;;;;;;;14.63;7.00;;;8.20;51.40;;;;;;5035234;28;20021;-70
2022/03/11 10:17:55;;;;;;;11.00;6.60;;;8.20;49.60;;;;;;5047757;28;20033;-70
2022/03/11 10:20:21;;;;;;;14.82;7.28;;;8.20;50.50;;;;;;5034815;28;20057;-70
2022/03/11 10:22:47;;;;;;;10.60;6.65;;;8.30;50.50;;;;;;5044373;28;20028;-69
2022/03/11 10:25:18;;;;;;;13.40;7.13;;;8.40;49.30;;;;;;5042927;28;20028;-69
2022/03/11 10:28:01;;;;;;;11.73;6.95;;;8.50;49.70;;;;;;5045371;28;20045;-69
2022/03/11 10:30:28;;;;;;;11.13;6.70;;;8.60;49.40;;;;;;5045689;28;20029;-70
2022/03/11 10:32:55;;;;;;;14.48;6.82;;;8.70;48.60;;;;;;5038385;28;20060;-69
2022/03/11 10:35:33;;;;;;;10.27;6.40;;;8.90;47.90;;;;;;5042995;28;20021;-70
2022/03/11 10:38:10;;;;;;;10.65;6.75;;;9.00;48.60;;;;;;5036538;28;20037;-69
2022/03/11 10:40:41;;;;;;;12.23;6.60;;;9.20;46.40;;;;;;5046612;28;20481;-70
2022/03/11 10:43:23;;;;;;;14.70;6.63;;;9.30;49.70;;;;;;5046393;28;20029;-70
2022/03/11 10:45:56;;;;;;;13.77;6.65;;;9.20;45.70;;;;;;5042104;28;20241;-70
2022/03/11 10:48:44;;;;;;;;;;;9.20;46.40;;;;;;5047975;28;20031;-70
2022/03/11 10:51:33;;;;;;;16.40;6.22;;;9.30;46.60;;;;;;5042858;28;19966;-69
2022/03/11 10:54:04;;;;;;;11.38;6.20;;;9.30;45.00;;;;;;5041203;28;20489;-70
2022/03/11 10:56:40;;;;;;;10.80;6.03;;;9.50;45.20;;;;;;5041663;28;20025;-70
2022/03/11 10:59:13;;;;;;;10.73;6.25;;;9.30;45.00;;;;;;5044345;28;20436;-70
2022/03/11 11:01:41;;;;;;;8.93;6.00;;;9.40;45.60;;;;;;5034938;28;20111;-70
2022/03/11 11:04:10;;;;;;;12.23;5.85;;;9.40;45.10;;;;;;5040469;28;20033;-70
2022/03/11 11:06:36;;;;;;;10.82;5.78;;;9.50;45.10;;;;;;5037204;28;20026;-71
2022/03/11 11:09:03;;;;;;;10.23;5.55;;;9.60;45.00;;;;;;5035456;28;20029;-70
2022/03/11 11:11:30;;;;;;;12.88;5.40;;;9.70;43.40;;;;;;5039137;28;20287;-70
2022/03/11 11:13:58;;;;;;;8.75;5.30;;;9.70;43.30;;;;;;5050082;28;20523;-68
2022/03/11 11:16:28;;;;;;;8.95;5.68;;;9.80;69.70;;;;;;5040217;28;20040;-67
2022/03/11 11:18:59;;;;;;;10.63;5.40;;;9.90;69.60;;;;;;5043766;28;20484;-67
2022/03/11 11:21:25;;;;;;;9.73;5.60;;;10.00;69.10;;;;;;5037856;28;20066;-67
2022/03/11 11:23:54;;;;;;;9.52;5.13;;;10.20;69.50;;;;;;5043181;28;20057;-67
2022/03/11 11:26:21;;;;;;;9.30;5.03;;;10.40;69.60;;;;;;5034835;28;20043;-67
2022/03/11 11:28:47;;;;;;;9.45;5.50;;;10.60;69.60;;;;;;5032535;28;20534;-67
2022/03/11 11:31:15;;;;;;;10.98;4.97;;;10.70;68.80;;;;;;5035718;28;20045;-67
2022/03/11 11:33:44;;;;;;;9.40;5.68;;;10.70;65.30;;;;;;5016266;28;20509;-67
2022/03/11 11:36:09;;;;;;;9.57;5.20;;;10.60;65.70;;;;;;5015064;28;20489;-67
2022/03/11 11:38:42;;;;;;;11.18;5.07;;;10.70;66.30;;;;;;5017741;28;20061;-67
2022/03/11 11:41:26;;;;;;;11.98;5.30;;;10.80;66.00;;;;;;5011227;28;20056;-67
2022/03/11 11:43:57;;;;;;;9.32;5.53;;;10.90;67.60;;;;;;5035270;28;20068;-68
2022/03/11 11:46:23;;;;;;;10.02;5.00;;;11.00;65.10;;;;;;5029861;28;20088;-67
2022/03/11 11:48:52;;;;;;;6.03;4.40;;;10.90;64.60;;;;;;5024303;28;20086;-67
2022/03/11 11:51:44;;;;;;;13.85;5.35;;;11.00;63.80;;;;;;5019150;28;20044;-67
2022/03/11 11:54:14;;;;;;;8.77;5.07;;;;;;;;;;5000084;28;20516;-68
2022/03/11 11:56:52;;;;;;;7.65;5.05;;;11.00;39.60;;;;;;5016567;28;20041;-67
2022/03/11 11:59:37;;;;;;;9.00;5.03;;;11.10;38.70;;;;;;5027007;28;20155;-67
2022/03/11 12:02:21;;;;;;;8.50;4.88;;;11.10;37.10;;;;;;5027951;28;20037;-68
2022/03/11 12:04:47;;;;;;;9.30;4.60;;;11.00;36.20;;;;;;5028048;28;20489;-68
2022/03/11 12:07:14;;;;;;;8.52;4.28;;;11.00;37.30;;;;;;5031488;28;20030;-67
2022/03/11 12:09:40;;;;;;;10.77;5.00;;;11.10;36.90;;;;;;5023662;28;20026;-68
2022/03/11 12:12:18;;;;;;;10.07;4.88;;;11.20;39.30;;;;;;5017732;28;20341;-68
2022/03/11 12:15:00;;;;;;;7.97;4.35;;;11.20;37.60;;;;;;5028152;28;20079;-68
2022/03/11 12:17:48;;;;;;;7.60;4.65;;;11.20;38.00;;;;;;5026396;28;20049;-68
2022/03/11 12:20:26;;;;;;;7.10;4.53;;;11.40;37.90;;;;;;5017308;28;20109;-68
2022/03/11 12:23:03;;;;;;;6.35;4.03;;;11.50;36.40;;;;;;5011424;28;20028;-68
2022/03/11 12:25:30;;;;;;;8.90;4.07;;;11.60;37.30;;;;;;5026294;28;20119;-67
2022/03/11 12:27:59;;;;;;;9.73;4.28;;;11.80;35.20;;;;;;5042712;28;20041;-68
2022/03/11 12:30:29;;;;;;;8.43;4.68;;;11.80;35.00;;;;;;5044828;28;20036;-68
2022/03/11 12:32:59;;;;;;;7.93;5.13;;;11.80;36.70;;;;;;5038154;28;20465;-68
2022/03/11 12:35:25;;;;;;;7.25;4.55;;;11.90;37.70;;;;;;5043731;28;20103;-68
2022/03/11 12:37:51;;;;;;;8.55;4.63;;;12.10;36.80;;;;;;5038457;28;20104;-67
2022/03/11 12:40:20;;;;;;;7.50;4.53;;;12.10;36.10;;;;;;4685388;28;10000589;-67